Time;durP1;ratioP1;P1;durP2;ratioP2;P2;SDS_P1;SDS_P2;PMS_P1;PMS_P2;Temp;Humidity;BMP_temperature;BMP_pressure;BME280_temperature;BME280_humidity;BME280_pressure;Samples;Min_cycle;Max_cycle;Signal;HPM_P1;HPM_P2
2021/10/24 00:01:47;;;;;;;15.53;10.50;;;3.70;99.90;;;;;;6126124;23;20469;-72
2021/10/24 00:04:14;;;;;;;16.93;11.37;;;3.70;99.90;;;;;;6126349;23;20022;-71
2021/10/24 00:06:41;;;;;;;15.40;12.73;;;3.70;99.90;;;;;;6126705;23;20026;-69
2021/10/24 00:09:08;;;;;;;13.60;10.10;;;3.80;99.90;;;;;;6126475;23;20025;-72
2021/10/24 00:11:35;;;;;;;16.83;11.23;;;3.80;99.90;;;;;;6125956;23;20022;-72
2021/10/24 00:14:04;;;;;;;14.40;10.37;;;3.80;99.90;;;;;;6125945;23;20398;-70
2021/10/24 00:16:32;;;;;;;14.93;10.97;;;3.90;99.90;;;;;;6126555;23;20123;-70
2021/10/24 00:18:58;;;;;;;14.43;10.70;;;3.80;99.90;;;;;;6126471;23;20077;-71
2021/10/24 00:21:25;;;;;;;13.63;10.80;;;3.80;99.90;;;;;;6126522;23;20089;-70
2021/10/24 00:23:51;;;;;;;12.30;9.87;;;3.80;99.90;;;;;;6125523;23;20389;-71
2021/10/24 00:26:18;;;;;;;13.50;8.60;;;3.80;99.90;;;;;;6126375;23;20018;-70
2021/10/24 00:28:45;;;;;;;18.23;9.43;;;3.80;99.90;;;;;;6126270;23;20026;-70
2021/10/24 00:31:13;;;;;;;10.77;9.67;;;3.90;99.90;;;;;;6126354;23;20022;-71
2021/10/24 00:33:39;;;;;;;11.80;9.40;;;3.80;99.90;;;;;;6125661;23;20346;-71
2021/10/24 00:36:06;;;;;;;11.87;10.13;;;3.80;99.90;;;;;;6126323;23;20076;-70
2021/10/24 00:38:32;;;;;;;31.67;15.97;;;3.70;99.90;;;;;;6126281;23;20026;-70
2021/10/24 00:40:59;;;;;;;18.10;10.77;;;3.70;99.90;;;;;;6126200;23;20405;-71
2021/10/24 00:43:26;;;;;;;11.70;9.10;;;3.60;99.90;;;;;;6125548;23;20022;-70
2021/10/24 00:45:53;;;;;;;13.03;8.47;;;3.50;99.90;;;;;;6126196;23;20076;-71
2021/10/24 00:48:20;;;;;;;10.50;9.30;;;3.50;99.90;;;;;;6125844;23;20481;-70
2021/10/24 00:50:47;;;;;;;13.20;8.80;;;3.50;99.90;;;;;;6126197;23;20081;-70
2021/10/24 00:53:15;;;;;;;15.27;8.67;;;3.50;99.90;;;;;;6125505;23;20022;-69
2021/10/24 00:55:44;;;;;;;17.40;8.93;;;3.60;99.90;;;;;;6125044;23;20101;-70
2021/10/24 00:58:12;;;;;;;11.60;8.57;;;3.60;99.90;;;;;;6126527;23;20018;-70
2021/10/24 01:00:39;;;;;;;15.20;9.07;;;3.70;99.90;;;;;;6126542;23;20021;-70
2021/10/24 01:03:06;;;;;;;10.23;7.57;;;3.60;99.90;;;;;;6125825;23;20022;-75
2021/10/24 01:05:35;;;;;;;12.70;8.73;;;3.70;99.90;;;;;;6126057;23;20100;-71
2021/10/24 01:08:01;;;;;;;10.70;7.90;;;3.70;99.90;;;;;;6125627;23;20487;-71
2021/10/24 01:10:29;;;;;;;8.93;7.43;;;3.80;99.90;;;;;;6125568;23;20018;-71
2021/10/24 01:12:55;;;;;;;15.17;8.50;;;3.80;99.90;;;;;;6125848;23;20030;-72
2021/10/24 01:15:23;;;;;;;16.70;9.00;;;3.70;99.90;;;;;;6125469;23;20073;-73
2021/10/24 01:17:51;;;;;;;15.73;8.73;;;3.80;99.90;;;;;;6125790;23;20081;-71
2021/10/24 01:20:19;;;;;;;12.57;7.93;;;3.70;99.90;;;;;;6125475;23;20465;-71
2021/10/24 01:22:48;;;;;;;14.23;9.33;;;3.70;99.90;;;;;;6126337;23;20022;-71
2021/10/24 01:25:15;;;;;;;13.60;8.40;;;3.70;99.90;;;;;;6125760;23;20025;-71
2021/10/24 01:27:42;;;;;;;9.70;7.60;;;3.70;99.90;;;;;;6125919;23;20057;-71
2021/10/24 01:30:10;;;;;;;12.70;9.40;;;3.80;99.90;;;;;;6125425;23;20473;-74
2021/10/24 01:32:36;;;;;;;10.07;8.03;;;3.80;99.90;;;;;;6125893;23;20053;-71
2021/10/24 01:35:03;;;;;;;10.57;8.10;;;3.80;99.90;;;;;;6125281;23;20022;-74
2021/10/24 01:37:32;;;;;;;9.20;7.40;;;3.80;99.90;;;;;;6125951;23;20018;-71
2021/10/24 01:40:01;;;;;;;13.17;8.33;;;3.80;99.90;;;;;;6125782;23;20022;-72
2021/10/24 01:42:28;;;;;;;10.20;7.90;;;3.80;99.90;;;;;;6125713;23;20069;-73
2021/10/24 01:44:55;;;;;;;9.93;7.07;;;3.90;99.90;;;;;;6125235;23;20026;-74
2021/10/24 01:47:22;;;;;;;10.10;7.87;;;3.90;99.90;;;;;;6125805;23;20383;-74
2021/10/24 01:49:48;;;;;;;10.47;8.77;;;4.00;99.90;;;;;;6125338;23;20469;-74
2021/10/24 01:52:16;;;;;;;11.67;6.57;;;4.10;99.90;;;;;;6125953;23;20030;-73
2021/10/24 01:54:42;;;;;;;12.97;7.60;;;4.20;99.90;;;;;;6125261;23;20024;-73
2021/10/24 01:57:10;;;;;;;9.23;7.50;;;4.20;99.90;;;;;;6125158;23;20022;-74
2021/10/24 01:59:37;;;;;;;10.13;6.53;;;4.10;99.90;;;;;;6124608;23;20073;-70
2021/10/24 02:02:03;;;;;;;12.63;7.40;;;4.20;99.90;;;;;;6125712;23;20083;-73
2021/10/24 02:04:31;;;;;;;10.63;7.90;;;4.40;99.90;;;;;;6125088;23;20022;-72
2021/10/24 02:06:57;;;;;;;10.83;7.83;;;4.40;99.90;;;;;;6125092;23;20349;-71
2021/10/24 02:09:24;;;;;;;11.50;8.90;;;4.40;99.90;;;;;;6125309;23;20018;-74
2021/10/24 02:11:50;;;;;;;11.70;7.80;;;4.40;99.90;;;;;;6125733;23;20025;-71
2021/10/24 02:14:18;;;;;;;10.53;7.50;;;4.30;99.90;;;;;;6124952;23;20022;-70
2021/10/24 02:16:45;;;;;;;8.37;6.73;;;4.30;99.90;;;;;;6125431;23;20022;-71
2021/10/24 02:19:11;;;;;;;11.07;6.97;;;4.30;99.90;;;;;;6125345;23;20022;-71
2021/10/24 02:21:38;;;;;;;13.03;6.93;;;4.50;99.90;;;;;;6125382;23;20022;-72
2021/10/24 02:24:05;;;;;;;10.57;6.43;;;4.50;99.90;;;;;;6124863;23;20101;-74
2021/10/24 02:26:32;;;;;;;14.67;7.67;;;4.50;99.90;;;;;;6125338;23;20026;-72
2021/10/24 02:28:59;;;;;;;10.03;6.57;;;4.50;99.90;;;;;;6125401;23;20080;-71
2021/10/24 02:31:27;;;;;;;10.73;6.17;;;4.50;99.90;;;;;;6125291;23;20401;-71
2021/10/24 02:33:53;;;;;;;11.33;7.60;;;4.60;99.90;;;;;;6124695;23;20022;-72
2021/10/24 02:36:20;;;;;;;10.17;7.70;;;4.60;99.90;;;;;;6125311;23;20026;-71
2021/10/24 02:38:46;;;;;;;8.97;6.53;;;4.50;99.90;;;;;;6125100;23;20022;-74
2021/10/24 02:41:13;;;;;;;10.10;6.40;;;4.40;99.90;;;;;;6125237;23;20018;-71
2021/10/24 02:43:39;;;;;;;12.27;7.50;;;4.40;99.90;;;;;;6124704;23;20022;-71
2021/10/24 02:46:06;;;;;;;9.77;6.87;;;4.30;99.90;;;;;;6125482;23;20018;-72
2021/10/24 02:48:34;;;;;;;7.80;6.37;;;4.50;99.90;;;;;;6125230;23;20083;-71
2021/10/24 02:51:01;;;;;;;10.20;5.83;;;4.50;99.90;;;;;;6125316;23;20400;-70
2021/10/24 02:53:28;;;;;;;8.67;6.60;;;4.60;99.90;;;;;;6124562;23;20026;-73
2021/10/24 02:55:54;;;;;;;9.83;6.87;;;4.40;99.90;;;;;;6125343;23;20452;-70
2021/10/24 02:58:21;;;;;;;7.50;5.80;;;4.20;99.90;;;;;;6124845;23;20061;-71
2021/10/24 03:00:47;;;;;;;9.07;5.87;;;4.10;99.90;;;;;;6125011;23;20018;-71
2021/10/24 03:03:14;;;;;;;13.43;6.27;;;4.20;99.90;;;;;;6124718;23;20025;-72
2021/10/24 03:05:42;;;;;;;12.07;7.60;;;4.10;99.90;;;;;;6124864;23;20530;-73
2021/10/24 03:08:08;;;;;;;12.20;7.07;;;4.20;99.90;;;;;;6124989;23;20021;-71
2021/10/24 03:10:35;;;;;;;5.93;5.07;;;4.30;99.90;;;;;;6125131;23;20018;-70
2021/10/24 03:13:04;;;;;;;10.20;6.30;;;4.10;99.90;;;;;;6124881;23;20412;-70
2021/10/24 03:15:31;;;;;;;10.60;6.20;;;4.00;99.90;;;;;;6124739;23;20022;-70
2021/10/24 03:17:57;;;;;;;7.87;6.10;;;3.90;99.90;;;;;;6124793;23;20092;-69
2021/10/24 03:20:24;;;;;;;6.93;6.20;;;3.80;99.90;;;;;;6124990;23;20022;-70
2021/10/24 03:22:52;;;;;;;7.03;5.67;;;3.80;99.90;;;;;;6124505;23;20026;-70
2021/10/24 03:25:19;;;;;;;8.73;6.33;;;3.70;99.90;;;;;;6125258;23;20093;-70
2021/10/24 03:27:45;;;;;;;9.07;7.93;;;3.90;99.90;;;;;;6125016;23;20026;-69
2021/10/24 03:30:12;;;;;;;8.23;6.60;;;3.80;99.90;;;;;;6124828;23;20054;-70
2021/10/24 03:32:39;;;;;;;11.70;7.23;;;3.60;99.90;;;;;;6124859;23;20073;-70
2021/10/24 03:35:05;;;;;;;14.20;5.97;;;3.50;99.90;;;;;;6124513;23;20021;-70
2021/10/24 03:37:32;;;;;;;10.07;5.63;;;3.40;99.90;;;;;;6125152;23;20022;-70
2021/10/24 03:40:00;;;;;;;8.53;5.40;;;3.50;99.90;;;;;;6125161;23;20022;-71
2021/10/24 03:42:27;;;;;;;7.20;6.27;;;3.50;99.90;;;;;;6124960;23;20392;-72
2021/10/24 03:44:54;;;;;;;7.33;5.37;;;3.40;99.90;;;;;;6124534;23;20022;-71
2021/10/24 03:47:21;;;;;;;7.80;5.67;;;3.40;99.90;;;;;;6124924;23;20018;-72
2021/10/24 03:49:47;;;;;;;9.93;6.40;;;3.30;99.90;;;;;;6124723;23;20022;-72
2021/10/24 03:52:14;;;;;;;7.03;6.17;;;3.20;99.90;;;;;;6124815;23;20073;-71
2021/10/24 03:54:40;;;;;;;7.67;5.80;;;3.10;99.90;;;;;;6124127;23;20022;-76
2021/10/24 03:57:08;;;;;;;7.53;5.27;;;3.00;99.90;;;;;;6124855;23;20025;-71
2021/10/24 03:59:35;;;;;;;5.57;4.80;;;3.00;99.90;;;;;;6124758;23;20053;-75
2021/10/24 04:02:02;;;;;;;9.13;6.83;;;3.10;99.90;;;;;;6125084;23;20073;-72
2021/10/24 04:04:29;;;;;;;8.40;5.77;;;3.10;99.90;;;;;;6124084;23;20502;-70
2021/10/24 04:06:55;;;;;;;7.90;5.40;;;3.10;99.90;;;;;;6124905;23;20108;-69
2021/10/24 04:09:22;;;;;;;7.43;6.00;;;3.20;99.90;;;;;;6124376;23;20022;-72
2021/10/24 04:11:50;;;;;;;8.73;6.07;;;3.20;99.90;;;;;;6124925;23;20111;-71
2021/10/24 04:14:18;;;;;;;8.57;6.90;;;3.20;99.90;;;;;;6124050;23;20030;-74
2021/10/24 04:16:44;;;;;;;8.17;4.73;;;3.10;99.90;;;;;;6124718;23;20408;-74
2021/10/24 04:19:11;;;;;;;7.23;5.07;;;3.30;99.90;;;;;;6124646;23;20018;-72
2021/10/24 04:21:38;;;;;;;7.23;5.27;;;3.30;99.90;;;;;;6124379;23;20457;-71
2021/10/24 04:24:05;;;;;;;8.20;5.33;;;3.20;99.90;;;;;;6124026;23;20018;-70
2021/10/24 04:26:32;;;;;;;12.73;4.90;;;3.20;99.90;;;;;;6124681;23;20077;-71
2021/10/24 04:28:59;;;;;;;7.70;5.80;;;3.30;99.90;;;;;;6124634;23;20026;-71
2021/10/24 04:31:27;;;;;;;6.70;5.87;;;3.20;99.90;;;;;;6126088;23;20018;-70
2021/10/24 04:33:54;;;;;;;5.93;4.93;;;3.10;99.90;;;;;;6125907;23;20069;-71
2021/10/24 04:36:21;;;;;;;7.23;5.53;;;3.10;99.90;;;;;;6126328;23;20333;-71
2021/10/24 04:38:47;;;;;;;10.73;7.27;;;3.10;99.90;;;;;;6126355;23;20022;-73
2021/10/24 04:41:14;;;;;;;9.00;5.77;;;3.10;99.90;;;;;;6126315;23;20046;-71
2021/10/24 04:43:41;;;;;;;8.17;6.17;;;3.00;99.90;;;;;;6125973;23;20022;-75
2021/10/24 04:46:07;;;;;;;5.57;4.90;;;2.90;99.90;;;;;;6126269;23;20018;-72
2021/10/24 04:48:35;;;;;;;14.90;5.27;;;3.00;99.90;;;;;;6127688;23;20018;-72
2021/10/24 04:51:02;;;;;;;5.83;4.17;;;3.10;99.90;;;;;;6126228;23;20022;-70
2021/10/24 04:53:29;;;;;;;6.37;4.47;;;3.00;99.90;;;;;;6125502;23;20072;-70
2021/10/24 04:55:56;;;;;;;8.03;5.90;;;2.90;99.90;;;;;;6126067;23;20025;-69
2021/10/24 04:58:22;;;;;;;8.80;5.37;;;2.90;99.90;;;;;;6126072;23;20093;-70
2021/10/24 05:00:49;;;;;;;10.70;5.07;;;3.00;99.90;;;;;;6126171;23;20022;-70
2021/10/24 05:03:16;;;;;;;11.60;5.67;;;3.10;99.90;;;;;;6125462;23;20026;-70
2021/10/24 05:05:46;;;;;;;5.37;4.87;;;3.00;99.90;;;;;;6126239;23;20018;-70
2021/10/24 05:08:13;;;;;;;6.53;4.70;;;3.10;99.90;;;;;;6125834;23;20053;-70
2021/10/24 05:10:41;;;;;;;6.80;4.40;;;3.10;99.90;;;;;;6126172;23;20021;-70
2021/10/24 05:13:08;;;;;;;7.17;4.93;;;3.00;99.90;;;;;;6125396;23;20110;-69
2021/10/24 05:15:34;;;;;;;9.70;4.90;;;3.00;99.90;;;;;;6126053;23;20018;-70
2021/10/24 05:18:01;;;;;;;6.17;4.63;;;3.00;99.90;;;;;;6125860;23;20457;-71
2021/10/24 05:20:27;;;;;;;6.27;5.67;;;3.00;99.90;;;;;;6125759;23;20084;-70
2021/10/24 05:22:56;;;;;;;7.40;4.67;;;2.90;99.90;;;;;;6125850;23;20085;-70
2021/10/24 05:25:22;;;;;;;6.07;4.33;;;2.90;99.90;;;;;;6125198;23;20052;-69
2021/10/24 05:27:54;;;;;;;8.00;4.90;;;2.80;99.90;;;;;;6126007;23;20018;-70
2021/10/24 05:30:21;;;;;;;4.95;4.55;;;2.80;99.90;;;;;;6125783;23;20021;-70
2021/10/24 05:32:47;;;;;;;8.10;4.80;;;2.80;99.90;;;;;;6125743;23;20025;-69
2021/10/24 05:35:14;;;;;;;3.57;3.27;;;2.80;99.90;;;;;;6125146;23;20022;-70
2021/10/24 05:37:40;;;;;;;7.67;3.93;;;2.80;99.90;;;;;;6125650;23;20022;-70
2021/10/24 05:40:10;;;;;;;8.60;4.00;;;2.70;99.90;;;;;;6125663;23;20393;-71
2021/10/24 05:42:37;;;;;;;5.03;4.53;;;2.60;99.90;;;;;;6125282;23;20391;-70
2021/10/24 05:45:04;;;;;;;6.30;4.80;;;2.50;99.90;;;;;;6125021;23;20022;-73
2021/10/24 05:47:31;;;;;;;8.83;5.43;;;2.40;99.90;;;;;;6125447;23;20460;-71
2021/10/24 05:49:58;;;;;;;6.70;5.33;;;2.60;99.90;;;;;;6125694;23;20081;-70
2021/10/24 05:52:25;;;;;;;6.33;4.70;;;2.60;99.90;;;;;;6125182;23;20465;-73
2021/10/24 05:54:51;;;;;;;8.17;4.93;;;2.40;99.90;;;;;;6124776;23;20022;-71
2021/10/24 05:57:20;;;;;;;5.97;5.10;;;2.40;99.90;;;;;;6125576;23;20022;-70
2021/10/24 05:59:46;;;;;;;6.80;5.30;;;2.40;99.90;;;;;;6125704;23;20077;-70
2021/10/24 06:02:13;;;;;;;6.33;4.60;;;2.50;99.90;;;;;;6125683;23;20053;-71
2021/10/24 06:04:39;;;;;;;8.00;5.27;;;2.30;99.90;;;;;;6124901;23;20022;-71
2021/10/24 06:07:06;;;;;;;8.37;4.77;;;2.30;99.90;;;;;;6125475;23;20068;-69
2021/10/24 06:09:41;;;;;;;8.37;5.77;;;2.30;99.90;;;;;;6125170;23;20025;-70
2021/10/24 06:12:12;;;;;;;9.03;5.30;;;2.30;99.90;;;;;;6125445;23;20085;-70
2021/10/24 06:14:41;;;;;;;5.80;4.10;;;2.30;99.90;;;;;;6124848;23;20105;-71
2021/10/24 06:17:08;;;;;;;8.80;4.73;;;2.40;99.90;;;;;;6125362;23;20571;-71
2021/10/24 06:19:35;;;;;;;7.87;4.90;;;2.40;99.90;;;;;;6125795;23;20050;-72
2021/10/24 06:22:02;;;;;;;9.57;5.00;;;2.60;99.90;;;;;;6125397;23;20524;-70
2021/10/24 06:24:29;;;;;;;9.33;5.17;;;2.80;99.90;;;;;;6124505;23;20532;-74
2021/10/24 06:26:56;;;;;;;5.70;4.40;;;3.10;99.90;;;;;;6125338;23;20018;-71
2021/10/24 06:29:22;;;;;;;5.00;4.57;;;3.30;99.90;;;;;;6125220;23;20026;-71
2021/10/24 06:31:50;;;;;;;5.40;4.60;;;3.30;99.90;;;;;;6124931;23;20396;-72
2021/10/24 06:34:17;;;;;;;5.00;4.57;;;3.70;99.90;;;;;;6124587;23;20022;-71
2021/10/24 06:36:44;;;;;;;7.63;5.63;;;3.90;99.90;;;;;;6125517;23;20021;-70
2021/10/24 06:39:11;;;;;;;5.70;4.73;;;4.10;99.90;;;;;;6125084;23;20073;-75
2021/10/24 06:41:37;;;;;;;7.60;4.83;;;4.40;99.90;;;;;;6125154;23;20018;-71
2021/10/24 06:44:04;;;;;;;9.43;4.40;;;4.70;99.90;;;;;;6124414;23;20464;-70
2021/10/24 06:46:31;;;;;;;6.13;4.70;;;4.90;99.90;;;;;;6125185;23;20081;-69
2021/10/24 06:48:58;;;;;;;7.10;4.33;;;5.10;99.90;;;;;;6124924;23;20022;-71
2021/10/24 06:51:25;;;;;;;10.50;4.63;;;5.50;99.90;;;;;;6125201;23;20073;-69
2021/10/24 06:53:52;;;;;;;5.63;4.07;;;5.70;99.90;;;;;;6124128;23;20472;-70
2021/10/24 06:56:18;;;;;;;4.77;4.30;;;6.10;99.90;;;;;;6125209;23;20022;-70
2021/10/24 06:58:45;;;;;;;8.10;4.50;;;6.60;99.90;;;;;;6125004;23;20073;-71
2021/10/24 07:01:12;;;;;;;6.17;4.10;;;7.10;99.90;;;;;;6124688;23;20472;-69
2021/10/24 07:03:38;;;;;;;5.60;4.47;;;7.10;99.90;;;;;;6124312;23;20025;-70
2021/10/24 07:06:07;;;;;;;4.73;4.33;;;7.30;99.90;;;;;;6124978;23;20018;-70
2021/10/24 07:08:33;;;;;;;5.68;4.25;;;7.90;99.90;;;;;;6124444;23;20461;-69
2021/10/24 07:11:00;;;;;;;6.82;4.18;;;8.40;99.90;;;;;;6124823;23;20468;-70
2021/10/24 07:13:26;;;;;;;5.18;4.10;;;8.40;99.90;;;;;;6124521;23;20022;-72
2021/10/24 07:15:53;;;;;;;5.28;4.72;;;8.60;99.90;;;;;;6125039;23;20077;-70
2021/10/24 07:18:20;;;;;;;5.28;4.38;;;8.50;99.90;;;;;;6124695;23;20018;-73
2021/10/24 07:20:46;;;;;;;5.35;4.55;;;8.70;99.90;;;;;;6124546;23;20409;-72
2021/10/24 07:23:14;;;;;;;5.68;3.90;;;8.80;99.90;;;;;;6124847;23;20081;-70
2021/10/24 07:25:41;;;;;;;5.32;4.13;;;8.80;99.90;;;;;;6125033;23;20018;-69
2021/10/24 07:28:08;;;;;;;7.68;5.53;;;9.10;99.90;;;;;;6125031;23;20081;-70
2021/10/24 07:30:34;;;;;;;6.18;4.68;;;9.00;99.90;;;;;;6124358;23;20669;-72
2021/10/24 07:33:01;;;;;;;4.68;4.20;;;8.60;99.90;;;;;;6124648;23;20075;-70
2021/10/24 07:35:28;;;;;;;6.78;4.38;;;8.80;99.90;;;;;;6123951;23;20456;-72
2021/10/24 07:37:54;;;;;;;7.88;4.68;;;8.40;99.90;;;;;;6124834;23;20389;-70
2021/10/24 07:40:23;;;;;;;6.03;4.22;;;8.50;99.90;;;;;;6124601;23;20519;-76
2021/10/24 07:42:50;;;;;;;7.40;4.78;;;8.60;99.90;;;;;;6124831;23;20025;-71
2021/10/24 07:45:17;;;;;;;6.43;4.28;;;9.00;99.90;;;;;;6124237;23;20025;-71
2021/10/24 07:47:45;;;;;;;7.82;5.35;;;9.30;99.90;;;;;;6124815;23;20022;-74
2021/10/24 07:50:12;;;;;;;8.65;5.32;;;9.30;99.90;;;;;;6124569;23;20352;-73
2021/10/24 07:52:40;;;;;;;5.38;4.88;;;8.90;99.90;;;;;;6124670;23;20022;-70
2021/10/24 07:55:07;;;;;;;11.73;4.93;;;8.20;99.90;;;;;;6124144;23;20022;-75
2021/10/24 07:57:35;;;;;;;5.88;5.38;;;8.30;99.90;;;;;;6124823;23;20022;-70
2021/10/24 08:00:03;;;;;;;7.90;5.95;;;8.80;99.90;;;;;;6124760;23;20097;-70
2021/10/24 08:02:29;;;;;;;5.05;4.57;;;9.10;99.90;;;;;;6124831;23;20022;-73
2021/10/24 08:04:56;;;;;;;6.22;4.88;;;9.50;99.90;;;;;;6124623;23;20022;-72
2021/10/24 08:07:22;;;;;;;5.38;4.15;;;9.40;99.90;;;;;;6126907;23;20022;-70
2021/10/24 08:09:49;;;;;;;5.18;4.72;;;10.10;99.90;;;;;;6126358;23;20030;-69
2021/10/24 08:12:16;;;;;;;5.35;4.85;;;10.50;99.90;;;;;;6126598;23;20022;-69
2021/10/24 08:14:43;;;;;;;5.93;5.32;;;10.40;99.90;;;;;;6126073;23;20022;-70
2021/10/24 08:17:11;;;;;;;5.05;4.53;;;10.80;99.90;;;;;;6126461;23;20022;-70
2021/10/24 08:19:39;;;;;;;10.65;5.18;;;11.40;99.90;;;;;;6126575;23;20022;-71
2021/10/24 08:22:07;;;;;;;6.05;5.38;;;11.40;99.90;;;;;;6126529;23;20022;-71
2021/10/24 08:24:34;;;;;;;11.95;6.03;;;11.30;99.90;;;;;;6126134;23;20018;-71
2021/10/24 08:27:00;;;;;;;9.52;5.70;;;11.60;99.90;;;;;;6126553;23;20022;-72
2021/10/24 08:29:27;;;;;;;6.63;4.30;;;12.10;99.90;;;;;;6126396;23;20408;-76
2021/10/24 08:31:55;;;;;;;5.63;4.47;;;12.30;99.90;;;;;;6128304;23;20078;-74
2021/10/24 08:34:23;;;;;;;5.38;4.15;;;12.40;99.90;;;;;;6126863;23;20018;-73
2021/10/24 08:36:50;;;;;;;5.10;3.65;;;13.10;99.90;;;;;;6127820;23;20022;-74
2021/10/24 08:39:20;;;;;;;6.20;3.78;;;13.70;99.90;;;;;;6125971;23;20096;-72
2021/10/24 08:41:49;;;;;;;6.00;4.47;;;13.70;99.90;;;;;;6126378;23;20046;-71
2021/10/24 08:44:17;;;;;;;4.80;4.10;;;14.00;99.90;;;;;;6125395;23;20453;-73
2021/10/24 08:46:44;;;;;;;5.70;4.20;;;14.40;99.90;;;;;;6126397;23;20026;-70
2021/10/24 08:49:12;;;;;;;4.65;3.35;;;14.70;99.90;;;;;;6126113;23;20022;-70
2021/10/24 08:51:39;;;;;;;6.53;3.35;;;15.30;99.90;;;;;;6126696;23;20029;-75
2021/10/24 08:54:08;;;;;;;6.05;3.85;;;15.50;99.80;;;;;;6125727;23;20026;-73
2021/10/24 08:56:35;;;;;;;7.65;4.00;;;15.00;99.90;;;;;;6126319;23;20348;-71
2021/10/24 08:59:01;;;;;;;6.85;4.07;;;14.60;99.90;;;;;;6125813;23;20486;-69
2021/10/24 09:01:28;;;;;;;5.60;3.55;;;14.50;99.90;;;;;;6126111;23;20026;-74
2021/10/24 09:04:12;;;;;;;6.10;3.85;;;14.50;99.90;;;;;;6125968;23;20026;-71
2021/10/24 09:06:48;;;;;;;5.97;3.83;;;14.10;99.90;;;;;;6126005;23;20022;-71
2021/10/24 09:09:17;;;;;;;4.47;3.67;;;12.90;99.90;;;;;;6125759;23;20043;-71
2021/10/24 09:11:52;;;;;;;4.28;3.80;;;13.20;99.90;;;;;;6125955;23;20077;-71
2021/10/24 09:14:37;;;;;;;4.40;4.00;;;14.20;99.90;;;;;;6125460;23;20406;-72
2021/10/24 09:17:05;;;;;;;7.32;3.83;;;14.90;99.90;;;;;;6125389;23;20026;-73
2021/10/24 09:19:37;;;;;;;6.03;3.80;;;14.20;99.90;;;;;;6127116;23;20022;-74
2021/10/24 09:22:34;;;;;;;5.90;3.92;;;14.40;99.90;;;;;;6129855;23;20022;-76
2021/10/24 09:25:12;;;;;;;7.10;4.18;;;14.30;99.90;;;;;;6127657;23;20025;-72
2021/10/24 09:27:48;;;;;;;4.50;4.07;;;13.70;99.90;;;;;;6126627;23;20029;-72
2021/10/24 09:30:19;;;;;;;9.15;4.47;;;13.80;99.90;;;;;;6125855;23;20022;-72
2021/10/24 09:32:47;;;;;;;7.40;4.30;;;14.30;99.90;;;;;;6126122;23;20022;-71
2021/10/24 09:35:14;;;;;;;5.68;3.17;;;14.60;99.90;;;;;;6125821;23;20029;-71
2021/10/24 09:37:46;;;;;;;4.05;3.38;;;13.90;99.90;;;;;;6125876;23;20026;-73
2021/10/24 09:40:14;;;;;;;4.50;3.67;;;14.40;99.90;;;;;;6126675;23;20022;-76
2021/10/24 09:42:41;;;;;;;8.05;3.58;;;14.50;99.90;;;;;;6126217;23;20025;-71
2021/10/24 09:45:12;;;;;;;4.85;3.47;;;14.70;99.90;;;;;;6125530;23;20077;-73
2021/10/24 09:47:41;;;;;;;6.38;2.88;;;15.40;99.90;;;;;;6126131;23;20017;-70
2021/10/24 09:50:10;;;;;;;4.78;3.17;;;16.60;99.60;;;;;;6125717;23;20025;-70
2021/10/24 09:52:38;;;;;;;3.88;3.00;;;17.50;94.30;;;;;;6125549;23;20041;-69
2021/10/24 09:55:16;;;;;;;5.95;3.85;;;16.30;96.00;;;;;;6124866;23;20022;-70
2021/10/24 09:57:44;;;;;;;4.97;2.70;;;16.30;96.20;;;;;;6125498;23;20022;-70
2021/10/24 10:00:12;;;;;;;5.00;2.90;;;15.90;97.30;;;;;;6125516;23;20093;-70
2021/10/24 10:02:40;;;;;;;5.38;2.58;;;16.80;94.20;;;;;;6125633;23;20123;-70
2021/10/24 10:05:08;;;;;;;2.47;2.20;;;17.10;93.20;;;;;;6124847;23;20081;-69
2021/10/24 10:07:35;;;;;;;6.45;2.55;;;16.90;93.00;;;;;;6125301;23;20069;-71
2021/10/24 10:10:02;;;;;;;3.47;2.30;;;16.40;93.70;;;;;;6125154;23;20022;-69
2021/10/24 10:12:34;;;;;;;4.28;2.72;;;16.10;94.80;;;;;;6125679;23;20089;-70
2021/10/24 10:15:03;;;;;;;6.53;3.03;;;16.60;93.90;;;;;;6124762;23;20105;-71
2021/10/24 10:17:30;;;;;;;6.25;2.72;;;17.60;92.10;;;;;;6125946;23;20085;-73
2021/10/24 10:19:58;;;;;;;4.43;2.70;;;17.30;91.20;;;;;;6125592;23;20084;-72
2021/10/24 10:22:27;;;;;;;2.22;1.77;;;16.40;91.40;;;;;;6125747;23;20022;-71
2021/10/24 10:24:56;;;;;;;7.45;2.58;;;16.30;92.90;;;;;;6125038;23;20022;-76
2021/10/24 10:27:46;;;;;;;6.55;3.13;;;16.20;93.40;;;;;;6125552;23;20022;-73
2021/10/24 10:30:15;;;;;;;3.88;2.35;;;16.60;91.50;;;;;;6125683;23;20017;-69
2021/10/24 10:32:43;;;;;;;7.28;3.70;;;17.30;91.10;;;;;;6125338;23;20029;-72
2021/10/24 10:35:12;;;;;;;6.05;2.35;;;17.50;89.70;;;;;;6124464;23;20539;-71
2021/10/24 10:37:45;;;;;;;3.95;2.25;;;17.10;89.30;;;;;;6125068;23;20464;-71
2021/10/24 10:40:14;;;;;;;4.80;2.20;;;16.50;90.90;;;;;;6125194;23;20024;-71
2021/10/24 10:42:56;;;;;;;3.60;1.88;;;16.50;90.70;;;;;;6125351;23;20022;-71
2021/10/24 10:45:26;;;;;;;5.55;2.47;;;15.90;91.90;;;;;;6124719;23;20448;-71
2021/10/24 10:47:56;;;;;;;2.92;1.77;;;15.40;93.20;;;;;;6128744;23;20096;-71
2021/10/24 10:50:47;;;;;;;3.45;1.95;;;15.10;93.70;;;;;;6128228;23;20022;-71
2021/10/24 10:53:47;;;;;;;6.68;2.92;;;15.30;93.10;;;;;;6124679;23;20076;-71
2021/10/24 10:56:20;;;;;;;2.92;1.80;;;15.60;93.30;;;;;;6117122;23;20022;-70
2021/10/24 10:58:50;;;;;;;2.58;1.30;;;16.30;91.10;;;;;;6125198;23;20056;-74
2021/10/24 11:01:29;;;;;;;4.63;1.77;;;16.00;91.10;;;;;;6124787;23;20065;-70
2021/10/24 11:03:58;;;;;;;2.80;1.70;;;15.80;92.00;;;;;;6124489;23;20026;-71
2021/10/24 11:06:57;;;;;;;2.60;1.50;;;15.60;92.40;;;;;;6125171;23;20257;-71
2021/10/24 11:09:45;;;;;;;4.47;1.73;;;15.40;92.80;;;;;;6124526;23;20025;-73
2021/10/24 11:12:27;;;;;;;3.08;1.70;;;16.10;91.10;;;;;;6124965;23;20022;-76
2021/10/24 11:15:04;;;;;;;;;;;16.20;90.60;;;;;;6124105;23;20077;-69
2021/10/24 11:17:35;;;;;;;3.05;2.45;;;17.80;87.60;;;;;;6124758;23;20311;-70
2021/10/24 11:20:22;;;;;;;;;;;17.70;82.00;;;;;;6125249;23;20041;-68
2021/10/24 11:22:58;;;;;;;2.25;1.52;;;17.00;82.50;;;;;;6125065;23;19921;-70
2021/10/24 11:25:33;;;;;;;1.15;1.05;;;16.50;85.40;;;;;;6124195;23;20018;-70
2021/10/24 11:28:09;;;;;;;6.95;2.47;;;16.30;85.80;;;;;;6124768;23;20050;-73
2021/10/24 11:30:38;;;;;;;1.42;1.20;;;15.90;88.80;;;;;;6124589;23;20026;-73
2021/10/24 11:33:05;;;;;;;2.78;1.80;;;16.30;87.80;;;;;;6124570;23;20089;-75
2021/10/24 11:35:34;;;;;;;3.22;2.10;;;17.00;86.10;;;;;;6124326;23;20025;-75
2021/10/24 11:38:04;;;;;;;5.63;1.55;;;17.40;81.80;;;;;;6124485;23;20489;-74
2021/10/24 11:40:33;;;;;;;4.03;1.85;;;17.80;79.00;;;;;;6125759;23;20022;-72
2021/10/24 11:43:04;;;;;;;2.38;1.45;;;18.40;78.10;;;;;;6127376;23;20022;-70
2021/10/24 11:45:34;;;;;;;2.42;1.00;;;16.50;79.90;;;;;;6126973;23;20046;-75
2021/10/24 11:48:04;;;;;;;2.80;1.35;;;15.80;82.80;;;;;;6126685;23;20033;-70
2021/10/24 11:50:39;;;;;;;7.80;1.52;;;15.70;83.20;;;;;;6126515;23;20022;-70
2021/10/24 11:53:06;;;;;;;1.75;1.52;;;16.40;82.00;;;;;;6126017;23;20022;-81
2021/10/24 11:55:34;;;;;;;3.33;1.30;;;16.90;78.90;;;;;;6126554;23;20053;-72
2021/10/24 11:58:07;;;;;;;3.10;1.08;;;17.00;78.60;;;;;;6126338;23;20026;-70
2021/10/24 12:00:49;;;;;;;2.80;1.05;;;18.10;77.00;;;;;;6126251;23;20018;-70
2021/10/24 12:03:28;;;;;;;3.40;1.83;;;18.20;74.30;;;;;;6126034;23;20101;-70
2021/10/24 12:05:55;;;;;;;1.85;1.00;;;17.20;76.00;;;;;;6126507;23;20026;-70
2021/10/24 12:08:43;;;;;;;3.05;1.10;;;17.10;76.10;;;;;;6125868;23;20022;-71
2021/10/24 12:11:13;;;;;;;2.03;1.05;;;17.30;74.50;;;;;;6126455;23;20101;-69
2021/10/24 12:13:41;;;;;;;6.40;0.98;;;17.00;74.90;;;;;;6125766;23;20025;-69
2021/10/24 12:16:28;;;;;;;0.88;0.73;;;16.70;75.20;;;;;;6126542;23;20102;-69
2021/10/24 12:19:26;;;;;;;3.05;1.02;;;17.30;73.90;;;;;;6126393;23;20018;-69
2021/10/24 12:22:07;;;;;;;2.47;0.82;;;17.40;72.20;;;;;;6126408;23;20327;-69
2021/10/24 12:24:47;;;;;;;1.25;0.98;;;16.90;72.90;;;;;;6126346;23;20022;-74
2021/10/24 12:27:28;;;;;;;6.07;1.17;;;16.70;73.90;;;;;;6126598;23;20018;-71
2021/10/24 12:29:57;;;;;;;1.00;0.73;;;16.50;74.30;;;;;;6126440;23;20022;-71
2021/10/24 12:32:23;;;;;;;1.60;0.65;;;16.40;74.80;;;;;;6126530;23;20017;-69
2021/10/24 12:35:06;;;;;;;1.75;1.00;;;16.10;75.00;;;;;;6125435;23;20084;-70
2021/10/24 12:37:34;;;;;;;2.05;0.93;;;16.00;75.50;;;;;;6126090;23;20536;-70
2021/10/24 12:40:22;;;;;;;0.90;0.70;;;15.80;76.80;;;;;;6126165;23;20085;-72
2021/10/24 12:43:10;;;;;;;3.50;1.00;;;15.70;76.50;;;;;;6126335;23;20069;-71
2021/10/24 12:45:51;;;;;;;1.20;0.82;;;16.00;77.10;;;;;;6126383;23;20326;-70
2021/10/24 12:48:19;;;;;;;2.53;1.23;;;16.60;75.20;;;;;;6126049;23;20030;-72
2021/10/24 12:50:49;;;;;;;6.25;1.55;;;17.20;74.50;;;;;;6126111;23;20080;-74
2021/10/24 12:53:18;;;;;;;3.63;1.35;;;17.30;72.00;;;;;;6125798;23;20073;-71
2021/10/24 12:56:04;;;;;;;4.53;1.90;;;17.60;72.40;;;;;;6125402;23;20022;-72
2021/10/24 12:58:31;;;;;;;2.28;1.60;;;17.40;71.30;;;;;;6126028;23;20018;-70
2021/10/24 13:00:57;;;;;;;2.30;0.85;;;17.80;71.60;;;;;;6126149;23;20025;-71